VOI559 MMMX-MMGL
Flight info
| Callsign | VOI559 |
|---|---|
| Flight time | N/A |
| Altitude | 38000 |
| Route | OVAGO3A OVAGO UT123 IGSON IGSON1B |
| Aircraft | A20N/M-SDE2E3FGHIRWXY/LB1 |
Departure
| Time | 2026-05-08 03:07 |
|---|---|
| Airport | Mexico City Benito Juárez International Airport (MMMX) |
Arrival
| Time | N/A |
|---|---|
| Airport | Guadalajara International Airport (MMGL) |
| Time | Latitude | Longitude | Altitude | Speed | Heading |
|---|---|---|---|---|---|
| 2026-05-08 02:42 | 19.43411 | -99.08305 | 7304 ft | 0 kts | 328° |
| 2026-05-08 02:57 | 19.43410 | -99.08305 | 7304 ft | 1 kts | 328° |
| 2026-05-08 02:57 | 19.43408 | -99.08303 | 7304 ft | 2 kts | 328° |
| 2026-05-08 02:57 | 19.43390 | -99.08292 | 7304 ft | 3 kts | 328° |
| 2026-05-08 02:58 | 19.43371 | -99.08280 | 7304 ft | 3 kts | 323° |
| 2026-05-08 02:58 | 19.43355 | -99.08264 | 7304 ft | 3 kts | 308° |
| 2026-05-08 02:58 | 19.43344 | -99.08244 | 7304 ft | 3 kts | 280° |
| 2026-05-08 02:58 | 19.43343 | -99.08234 | 7304 ft | 0 kts | 254° |
| 2026-05-08 03:00 | 19.43341 | -99.08240 | 7304 ft | 2 kts | 253° |
| 2026-05-08 03:00 | 19.43326 | -99.08274 | 7304 ft | 9 kts | 240° |
| 2026-05-08 03:01 | 19.43287 | -99.08344 | 7304 ft | 13 kts | 239° |
| 2026-05-08 03:01 | 19.43240 | -99.08427 | 7303 ft | 13 kts | 239° |
| 2026-05-08 03:01 | 19.43195 | -99.08507 | 7303 ft | 10 kts | 239° |
| 2026-05-08 03:01 | 19.43160 | -99.08569 | 7303 ft | 10 kts | 239° |
| 2026-05-08 03:02 | 19.43132 | -99.08619 | 7303 ft | 1 kts | 239° |
| 2026-05-08 03:02 | 19.43120 | -99.08641 | 7303 ft | 7 kts | 239° |
| 2026-05-08 03:02 | 19.43083 | -99.08707 | 7303 ft | 14 kts | 239° |
| 2026-05-08 03:02 | 19.43023 | -99.08812 | 7303 ft | 19 kts | 239° |
| 2026-05-08 03:03 | 19.42955 | -99.08934 | 7303 ft | 18 kts | 239° |
| 2026-05-08 03:03 | 19.42894 | -99.09023 | 7303 ft | 8 kts | 221° |
| 2026-05-08 03:03 | 19.42864 | -99.09043 | 7303 ft | 0 kts | 208° |
| 2026-05-08 03:04 | 19.42858 | -99.09046 | 7303 ft | 4 kts | 207° |
| 2026-05-08 03:04 | 19.42808 | -99.09072 | 7303 ft | 11 kts | 206° |
| 2026-05-08 03:04 | 19.42758 | -99.09050 | 7304 ft | 10 kts | 85° |
| 2026-05-08 03:04 | 19.42780 | -99.08999 | 7304 ft | 0 kts | 59° |
| 2026-05-08 03:06 | 19.42797 | -99.08969 | 7304 ft | 27 kts | 59° |
| 2026-05-08 03:06 | 19.43023 | -99.08582 | 7303 ft | 95 kts | 59° |
| 2026-05-08 03:06 | 19.43459 | -99.07799 | 7306 ft | 149 kts | 59° |
| 2026-05-08 03:07 | 19.44034 | -99.06756 | 7625 ft | 164 kts | 57° |
| 2026-05-08 03:07 | 19.44590 | -99.05727 | 8485 ft | 159 kts | 58° |
| 2026-05-08 03:07 | 19.45145 | -99.04725 | 9101 ft | 156 kts | 58° |
| 2026-05-08 03:07 | 19.45699 | -99.03716 | 9454 ft | 163 kts | 60° |
| 2026-05-08 03:08 | 19.46325 | -99.02614 | 9765 ft | 185 kts | 59° |
| 2026-05-08 03:08 | 19.47035 | -99.01391 | 10129 ft | 205 kts | 60° |
| 2026-05-08 03:08 | 19.47814 | -99.00035 | 10449 ft | 227 kts | 60° |
| 2026-05-08 03:08 | 19.48682 | -98.98508 | 10662 ft | 254 kts | 60° |
| 2026-05-08 03:09 | 19.49620 | -98.96815 | 10978 ft | 276 kts | 65° |
| 2026-05-08 03:09 | 19.50073 | -98.94861 | 11592 ft | 280 kts | 92° |
| 2026-05-08 03:09 | 19.49661 | -98.92865 | 12294 ft | 280 kts | 119° |
| 2026-05-08 03:09 | 19.48459 | -98.91267 | 13019 ft | 279 kts | 145° |
| 2026-05-08 03:10 | 19.46720 | -98.90410 | 13791 ft | 278 kts | 171° |
| 2026-05-08 03:10 | 19.44799 | -98.90467 | 14504 ft | 278 kts | 197° |
| 2026-05-08 03:10 | 19.43100 | -98.91431 | 15178 ft | 282 kts | 222° |
| 2026-05-08 03:10 | 19.41956 | -98.93121 | 15868 ft | 287 kts | 245° |
| 2026-05-08 03:11 | 19.41253 | -98.95129 | 16524 ft | 293 kts | 250° |
| 2026-05-08 03:11 | 19.40609 | -98.97185 | 17214 ft | 296 kts | 249° |
| 2026-05-08 03:11 | 19.39900 | -98.99241 | 17930 ft | 299 kts | 247° |
| 2026-05-08 03:11 | 19.39115 | -99.01296 | 18594 ft | 303 kts | 246° |
| 2026-05-08 03:12 | 19.38278 | -99.03356 | 19175 ft | 305 kts | 245° |
| 2026-05-08 03:12 | 19.37450 | -99.05438 | 19753 ft | 309 kts | 249° |
| 2026-05-08 03:12 | 19.36889 | -99.07647 | 20318 ft | 314 kts | 258° |
| 2026-05-08 03:12 | 19.36557 | -99.09970 | 20687 ft | 327 kts | 259° |
| 2026-05-08 03:13 | 19.36204 | -99.12422 | 20866 ft | 344 kts | 259° |
| 2026-05-08 03:13 | 19.35836 | -99.14945 | 21355 ft | 348 kts | 259° |
| 2026-05-08 03:13 | 19.35465 | -99.17483 | 21942 ft | 350 kts | 259° |
| 2026-05-08 03:13 | 19.35090 | -99.20049 | 22488 ft | 354 kts | 258° |
| 2026-05-08 03:14 | 19.34710 | -99.22635 | 23035 ft | 357 kts | 258° |
| 2026-05-08 03:14 | 19.34327 | -99.25244 | 23585 ft | 360 kts | 258° |
| 2026-05-08 03:14 | 19.33945 | -99.27839 | 24053 ft | 363 kts | 257° |
| 2026-05-08 03:14 | 19.33549 | -99.30524 | 24496 ft | 365 kts | 258° |
| 2026-05-08 03:15 | 19.33156 | -99.33187 | 25010 ft | 368 kts | 258° |
| 2026-05-08 03:15 | 19.32764 | -99.35838 | 25475 ft | 370 kts | 258° |
| 2026-05-08 03:15 | 19.32373 | -99.38482 | 25938 ft | 373 kts | 258° |
| 2026-05-08 03:15 | 19.31943 | -99.41221 | 26278 ft | 380 kts | 257° |
| 2026-05-08 03:16 | 19.31411 | -99.44004 | 26414 ft | 392 kts | 255° |
| 2026-05-08 03:16 | 19.30832 | -99.46865 | 26549 ft | 404 kts | 255° |
| 2026-05-08 03:16 | 19.30345 | -99.49841 | 26656 ft | 418 kts | 264° |
| 2026-05-08 03:16 | 19.30500 | -99.52965 | 26764 ft | 433 kts | 277° |
| 2026-05-08 03:17 | 19.31136 | -99.56127 | 26937 ft | 443 kts | 281° |
| 2026-05-08 03:17 | 19.31891 | -99.59301 | 27327 ft | 445 kts | 282° |
| 2026-05-08 03:17 | 19.32656 | -99.62481 | 27727 ft | 447 kts | 282° |
| 2026-05-08 03:17 | 19.33407 | -99.65684 | 28081 ft | 450 kts | 281° |
| 2026-05-08 03:18 | 19.34140 | -99.68888 | 28413 ft | 452 kts | 281° |
| 2026-05-08 03:18 | 19.34861 | -99.72097 | 28733 ft | 454 kts | 281° |
| 2026-05-08 03:18 | 19.35597 | -99.75402 | 29051 ft | 457 kts | 281° |
| 2026-05-08 03:18 | 19.36316 | -99.78640 | 29357 ft | 459 kts | 281° |
| 2026-05-08 03:19 | 19.37048 | -99.81944 | 29652 ft | 461 kts | 281° |
| 2026-05-08 03:19 | 19.37782 | -99.85256 | 29952 ft | 463 kts | 281° |
| 2026-05-08 03:19 | 19.38521 | -99.88591 | 30232 ft | 466 kts | 281° |
| 2026-05-08 03:19 | 19.39261 | -99.91934 | 30518 ft | 466 kts | 281° |
| 2026-05-08 03:20 | 19.40003 | -99.95287 | 30828 ft | 467 kts | 281° |
| 2026-05-08 03:20 | 19.40742 | -99.98633 | 31162 ft | 468 kts | 281° |
| 2026-05-08 03:20 | 19.41484 | -100.01990 | 31574 ft | 467 kts | 281° |
| 2026-05-08 03:20 | 19.42221 | -100.05331 | 32001 ft | 464 kts | 281° |
| 2026-05-08 03:21 | 19.42954 | -100.08654 | 32457 ft | 462 kts | 281° |
| 2026-05-08 03:21 | 19.43682 | -100.11961 | 32894 ft | 460 kts | 281° |
| 2026-05-08 03:21 | 19.44405 | -100.15252 | 33341 ft | 457 kts | 280° |
| 2026-05-08 03:21 | 19.45124 | -100.18528 | 33750 ft | 455 kts | 280° |
| 2026-05-08 03:22 | 19.45839 | -100.21787 | 34147 ft | 453 kts | 280° |
| 2026-05-08 03:22 | 19.46551 | -100.25033 | 34491 ft | 451 kts | 280° |
| 2026-05-08 03:22 | 19.47259 | -100.28268 | 34813 ft | 450 kts | 280° |
| 2026-05-08 03:22 | 19.47963 | -100.31490 | 35115 ft | 448 kts | 280° |
| 2026-05-08 03:23 | 19.48666 | -100.34707 | 35424 ft | 447 kts | 280° |
| 2026-05-08 03:23 | 19.49366 | -100.37910 | 35739 ft | 446 kts | 280° |
| 2026-05-08 03:23 | 19.50063 | -100.41110 | 36045 ft | 445 kts | 280° |
| 2026-05-08 03:23 | 19.50760 | -100.44308 | 36344 ft | 444 kts | 280° |
| 2026-05-08 03:24 | 19.51455 | -100.47498 | 36658 ft | 443 kts | 280° |
| 2026-05-08 03:24 | 19.52146 | -100.50674 | 36949 ft | 443 kts | 280° |
| 2026-05-08 03:24 | 19.52838 | -100.53850 | 37226 ft | 442 kts | 280° |
| 2026-05-08 03:24 | 19.53528 | -100.57028 | 37482 ft | 441 kts | 280° |
| 2026-05-08 03:25 | 19.54215 | -100.60194 | 37765 ft | 440 kts | 280° |
| 2026-05-08 03:25 | 19.54891 | -100.63309 | 37933 ft | 439 kts | 280° |
| 2026-05-08 03:25 | 19.55585 | -100.66516 | 37946 ft | 438 kts | 280° |
| 2026-05-08 03:26 | 19.56935 | -100.72758 | 37941 ft | 437 kts | 280° |
| 2026-05-08 03:26 | 19.58293 | -100.79051 | 37950 ft | 437 kts | 280° |
| 2026-05-08 03:27 | 19.59645 | -100.85324 | 37995 ft | 437 kts | 279° |